Terminal Aerodrome Forecast
Issued by NWS

Home | Current Version | Previous Version | Text Only | Print | Product List | Glossary Off
Versions: 1 2 3 4 5 6 7 8 9 10 11 12 13 14 15 16

003
FTUS41 KCLE 151724
TAFFDY
TAF
KFDY 151724Z 1518/1618 27008KT P6SM VCSH BKN045
     FM160100 VRB03KT P6SM FEW050 SCT250
     FM160900 VRB03KT 3SM BR SCT045
     FM161400 09005KT P6SM SCT250
     FM161700 11005KT P6SM SCT040=

USA.gov is the U.S. government's official web portal to all federal, state and local government web resources and services.